createdAt,value
2022-11-22T00:00:38.163Z,25.80
2022-11-22T00:03:15.824Z,28.00
2022-11-22T00:05:43.265Z,27.75
2022-11-22T00:08:10.273Z,32.15
2022-11-22T00:10:37.681Z,29.75
2022-11-22T00:13:04.875Z,28.50
2022-11-22T00:15:32.165Z,27.80
2022-11-22T00:17:59.044Z,28.27
2022-11-22T00:20:26.589Z,26.48
2022-11-22T00:22:53.592Z,26.65
2022-11-22T00:25:20.811Z,28.33
2022-11-22T00:27:47.657Z,24.88
2022-11-22T00:30:15.319Z,27.70
2022-11-22T00:32:42.261Z,30.23
2022-11-22T00:35:11.149Z,27.25
2022-11-22T00:37:38.407Z,26.83
2022-11-22T00:40:07.172Z,27.60
2022-11-22T00:42:34.011Z,26.15
2022-11-22T00:45:01.405Z,26.25
2022-11-22T00:47:28.314Z,25.48
2022-11-22T00:49:55.456Z,27.13
2022-11-22T00:52:22.309Z,27.45
2022-11-22T00:54:54.528Z,28.00
2022-11-22T00:57:21.937Z,24.90
2022-11-22T00:59:49.167Z,26.77
2022-11-22T01:02:16.161Z,29.33
2022-11-22T01:04:43.435Z,27.55
2022-11-22T01:07:10.735Z,29.42
2022-11-22T01:09:38.191Z,28.88
2022-11-22T01:12:05.634Z,26.83
2022-11-22T01:14:32.955Z,25.17
2022-11-22T01:16:59.812Z,19.17
2022-11-22T01:19:27.178Z,19.77
2022-11-22T01:21:54.144Z,20.52
2022-11-22T01:24:21.598Z,20.33
2022-11-22T01:26:48.502Z,19.80
2022-11-22T01:29:15.968Z,18.13
2022-11-22T01:31:42.871Z,17.52
2022-11-22T01:34:10.130Z,17.73
2022-11-22T01:36:36.979Z,16.98
2022-11-22T01:39:04.233Z,16.08
2022-11-22T01:41:31.217Z,15.48
2022-11-22T01:43:58.373Z,15.75
2022-11-22T01:46:34.655Z,15.10
2022-11-22T01:49:13.077Z,15.02
2022-11-22T01:51:44.044Z,15.65
2022-11-22T01:54:15.810Z,14.98
2022-11-22T01:56:46.557Z,15.15
2022-11-22T01:59:18.707Z,15.68
2022-11-22T02:01:45.602Z,14.10
2022-11-22T02:04:16.469Z,15.95
2022-11-22T02:06:56.940Z,13.88
2022-11-22T02:09:24.092Z,13.95
2022-11-22T02:11:53.282Z,12.73
2022-11-22T02:14:27.434Z,15.15
2022-11-22T02:16:54.839Z,13.82
2022-11-22T02:19:52.761Z,14.30
2022-11-22T02:22:32.047Z,14.35
2022-11-22T02:25:08.945Z,15.05
2022-11-22T02:27:35.790Z,13.00
2022-11-22T02:30:03.081Z,12.98
2022-11-22T02:32:30.142Z,12.48
2022-11-22T02:34:57.255Z,14.10
2022-11-22T02:37:27.635Z,13.15
2022-11-22T02:40:02.810Z,12.85
2022-11-22T02:42:31.157Z,14.20
2022-11-22T02:44:58.311Z,14.20
2022-11-22T02:47:25.163Z,12.50
2022-11-22T02:49:55.385Z,11.65
2022-11-22T02:52:22.299Z,12.35
2022-11-22T02:54:49.730Z,13.63
2022-11-22T02:57:16.654Z,13.85
2022-11-22T02:59:43.817Z,14.38
2022-11-22T03:02:10.891Z,13.20
2022-11-22T03:04:38.182Z,15.88
2022-11-22T03:07:05.269Z,12.55
2022-11-22T03:09:32.775Z,13.00
2022-11-22T03:12:00.027Z,12.80
2022-11-22T03:14:27.341Z,13.32
2022-11-22T03:16:54.220Z,13.13
2022-11-22T03:19:21.479Z,13.60
2022-11-22T03:21:48.420Z,14.00
2022-11-22T03:24:16.160Z,12.63
2022-11-22T03:26:50.005Z,11.30
2022-11-22T03:29:18.351Z,12.57
2022-11-22T03:31:45.240Z,12.77
2022-11-22T03:34:13.095Z,12.35
2022-11-22T03:36:40.034Z,12.40
2022-11-22T03:39:07.395Z,12.63
2022-11-22T03:41:34.257Z,14.05
2022-11-22T03:44:01.426Z,14.48
2022-11-22T03:46:28.522Z,13.15
2022-11-22T03:48:55.678Z,13.35
2022-11-22T03:51:23.165Z,12.65
2022-11-22T03:53:50.285Z,11.65
2022-11-22T03:56:17.212Z,10.98
2022-11-22T03:58:44.320Z,12.45
2022-11-22T04:01:16.403Z,11.95
2022-11-22T04:03:43.995Z,10.95
2022-11-22T04:06:10.855Z,11.98
2022-11-22T04:08:38.053Z,11.23
2022-11-22T04:11:05.105Z,12.00
2022-11-22T04:13:50.755Z,12.65
2022-11-22T04:16:17.737Z,12.25
2022-11-22T04:18:44.844Z,11.88
2022-11-22T04:21:30.325Z,12.57
2022-11-22T04:24:16.233Z,13.75
2022-11-22T04:26:43.101Z,13.27
2022-11-22T04:29:10.690Z,11.82
2022-11-22T04:31:56.446Z,12.90
2022-11-22T04:34:23.794Z,12.90
2022-11-22T04:36:50.735Z,12.60
2022-11-22T04:39:17.960Z,13.20
2022-11-22T04:41:44.915Z,11.52
2022-11-22T04:44:44.243Z,11.35
2022-11-22T04:47:36.218Z,12.50
2022-11-22T04:50:25.124Z,12.70
2022-11-22T04:52:54.505Z,12.98
2022-11-22T04:55:22.149Z,11.90
2022-11-22T04:57:50.450Z,11.82
2022-11-22T05:00:20.544Z,13.00
2022-11-22T05:02:47.381Z,11.25
2022-11-22T05:05:14.751Z,14.85
2022-11-22T05:07:41.703Z,12.52
2022-11-22T05:10:09.580Z,12.75
2022-11-22T05:12:36.419Z,11.15
2022-11-22T05:15:04.457Z,12.02
2022-11-22T05:17:31.361Z,13.68
2022-11-22T05:19:58.487Z,13.50
2022-11-22T05:22:46.808Z,13.45
2022-11-22T05:25:14.046Z,13.25
2022-11-22T05:27:40.936Z,14.02
2022-11-22T05:30:08.489Z,13.77
2022-11-22T05:32:35.794Z,13.18
2022-11-22T05:35:03.155Z,13.07
2022-11-22T05:37:30.115Z,13.20
2022-11-22T05:39:57.276Z,12.82
2022-11-22T05:42:24.141Z,14.60
2022-11-22T05:44:51.258Z,15.80
2022-11-22T05:47:18.241Z,14.48
2022-11-22T05:49:46.191Z,15.32
2022-11-22T05:52:13.322Z,14.23
2022-11-22T05:54:40.467Z,15.30
2022-11-22T05:57:07.343Z,11.95
2022-11-22T05:59:36.045Z,12.68
2022-11-22T06:02:04.543Z,12.80
2022-11-22T06:04:32.123Z,10.10
2022-11-22T06:06:58.959Z,11.98
2022-11-22T06:09:26.143Z,12.88
2022-11-22T06:11:53.018Z,11.75
2022-11-22T06:14:20.507Z,11.55
2022-11-22T06:16:47.434Z,10.88
2022-11-22T06:19:14.990Z,12.90
2022-11-22T06:21:41.891Z,11.52
2022-11-22T06:24:10.025Z,13.70
2022-11-22T06:26:39.397Z,14.48
2022-11-22T06:29:07.117Z,12.10
2022-11-22T06:31:33.976Z,15.35
2022-11-22T06:34:01.457Z,14.15
2022-11-22T06:36:31.073Z,14.40
2022-11-22T06:38:58.480Z,15.23
2022-11-22T06:41:27.456Z,15.07
2022-11-22T06:43:58.560Z,14.95
2022-11-22T06:46:27.199Z,15.05
2022-11-22T06:48:54.515Z,15.68
2022-11-22T06:51:24.727Z,13.57
2022-11-22T06:53:55.364Z,14.25
2022-11-22T06:56:28.368Z,14.25
2022-11-22T06:58:56.220Z,16.23
2022-11-22T07:01:25.488Z,16.85
2022-11-22T07:03:58.524Z,15.45
2022-11-22T07:06:28.493Z,14.57
2022-11-22T07:08:56.508Z,18.38
2022-11-22T07:11:26.093Z,14.85
2022-11-22T07:13:55.164Z,15.38
2022-11-22T07:16:22.514Z,14.43
2022-11-22T07:18:50.398Z,15.43
2022-11-22T07:21:22.446Z,14.98
2022-11-22T07:23:52.177Z,15.75
2022-11-22T07:26:20.783Z,13.00
2022-11-22T07:28:48.643Z,16.73
2022-11-22T07:31:17.445Z,15.35
2022-11-22T07:33:45.230Z,15.45
2022-11-22T07:36:13.388Z,14.27
2022-11-22T07:38:40.805Z,13.52
2022-11-22T07:41:08.636Z,15.95
2022-11-22T07:43:36.034Z,15.13
2022-11-22T07:46:08.313Z,14.18
2022-11-22T07:48:35.748Z,14.55
2022-11-22T07:51:06.981Z,15.02
2022-11-22T07:53:35.255Z,14.25
2022-11-22T07:56:06.112Z,14.98
2022-11-22T07:58:34.953Z,13.88
2022-11-22T08:01:10.180Z,12.50
2022-11-22T08:03:38.281Z,15.57
2022-11-22T08:06:07.274Z,14.02
2022-11-22T08:08:35.351Z,14.43
2022-11-22T08:11:02.788Z,14.02
2022-11-22T08:13:31.007Z,14.60
2022-11-22T08:16:05.531Z,13.95
2022-11-22T08:18:34.493Z,13.93
2022-11-22T08:21:10.128Z,13.70
2022-11-22T08:23:38.081Z,15.20
2022-11-22T08:26:06.479Z,14.18
2022-11-22T08:28:33.913Z,14.13
2022-11-22T08:31:10.446Z,16.17
2022-11-22T08:33:37.815Z,15.65
2022-11-22T08:36:05.339Z,16.58
2022-11-22T08:38:32.670Z,15.13
2022-11-22T08:40:59.606Z,14.15
2022-11-22T08:43:26.838Z,14.00
2022-11-22T08:45:56.173Z,14.18
2022-11-22T08:48:24.297Z,14.77
2022-11-22T08:50:57.092Z,14.73
2022-11-22T08:55:51.990Z,21.40
2022-11-22T08:58:19.487Z,15.55
2022-11-22T09:00:46.595Z,15.95
2022-11-22T09:03:13.784Z,16.13
2022-11-22T09:08:30.022Z,15.18
2022-11-22T09:11:04.233Z,16.10
2022-11-22T09:13:31.973Z,13.38
2022-11-22T09:16:03.283Z,15.10
2022-11-22T09:18:30.623Z,16.08
2022-11-22T09:21:02.138Z,14.98
2022-11-22T09:23:29.840Z,16.50
2022-11-22T09:26:01.831Z,17.35
2022-11-22T09:28:29.853Z,15.73
2022-11-22T09:31:23.241Z,16.30
2022-11-22T09:33:51.074Z,19.17
2022-11-22T09:36:23.560Z,30.15
2022-11-22T09:38:51.866Z,21.42
2022-11-22T09:41:56.929Z,31.98
2022-11-22T09:45:01.900Z,18.73
2022-11-22T09:47:54.650Z,21.02
2022-11-22T09:50:38.170Z,18.70
2022-11-22T09:53:12.204Z,17.58
2022-11-22T09:55:47.592Z,19.60
2022-11-22T09:58:35.958Z,17.63
2022-11-22T10:01:23.795Z,17.90
2022-11-22T10:04:15.714Z,19.60
2022-11-22T10:06:57.493Z,18.77
2022-11-22T10:09:39.256Z,19.88
2022-11-22T10:12:33.809Z,20.48
2022-11-22T10:15:07.382Z,18.23
2022-11-22T10:17:54.139Z,18.75
2022-11-22T10:20:25.368Z,18.35
2022-11-22T10:22:53.324Z,18.55
2022-11-22T10:25:38.372Z,21.30
2022-11-22T10:28:24.496Z,20.25
2022-11-22T10:31:16.976Z,17.88
2022-11-22T10:34:03.135Z,17.90
2022-11-22T10:36:53.367Z,16.90
2022-11-22T10:39:34.420Z,19.88
2022-11-22T10:42:27.847Z,18.60
2022-11-22T10:45:15.304Z,19.50
2022-11-22T10:48:11.412Z,15.82
2022-11-22T10:50:49.434Z,17.90
2022-11-22T10:53:24.948Z,15.32
2022-11-22T10:55:59.885Z,17.42
2022-11-22T10:58:53.450Z,19.95
2022-11-22T11:01:32.397Z,20.83
2022-11-22T11:04:00.623Z,18.70
2022-11-22T11:06:57.100Z,19.05
2022-11-22T11:12:42.296Z,19.42
2022-11-22T11:15:24.738Z,19.17
2022-11-22T11:18:00.139Z,22.27
2022-11-22T11:20:31.623Z,20.67
2022-11-22T11:23:13.769Z,21.75
2022-11-22T11:25:44.043Z,16.17
2022-11-22T11:28:16.476Z,20.55
2022-11-22T11:30:56.502Z,20.67
2022-11-22T11:33:35.969Z,48.30
2022-11-22T11:36:07.860Z,25.73
2022-11-22T11:38:52.976Z,23.37
2022-11-22T11:41:23.055Z,20.30
2022-11-22T11:43:53.919Z,22.40
2022-11-22T11:46:23.998Z,20.30
2022-11-22T11:48:53.384Z,19.77
2022-11-22T11:51:37.071Z,20.80
2022-11-22T11:54:34.704Z,21.13
2022-11-22T11:57:07.792Z,20.05
2022-11-22T11:59:37.806Z,19.25
2022-11-22T12:02:17.150Z,19.65
2022-11-22T12:04:52.239Z,17.30
2022-11-22T12:07:37.824Z,16.52
2022-11-22T12:10:47.044Z,17.63
2022-11-22T12:13:24.683Z,15.30
2022-11-22T12:16:18.515Z,17.75
2022-11-22T12:18:58.024Z,17.17
2022-11-22T12:22:29.509Z,18.00
2022-11-22T12:25:31.888Z,17.05
2022-11-22T12:28:11.971Z,18.83
2022-11-22T12:30:41.246Z,17.80
2022-11-22T12:33:14.815Z,18.60
2022-11-22T12:35:44.438Z,20.35
2022-11-22T12:38:17.352Z,19.63
2022-11-22T12:40:48.231Z,18.30
2022-11-22T12:43:24.762Z,19.75
2022-11-22T12:46:04.499Z,21.85
2022-11-22T12:48:48.390Z,19.67
2022-11-22T12:51:33.347Z,20.13
2022-11-22T12:54:09.158Z,21.77
2022-11-22T12:56:51.763Z,21.92
2022-11-22T12:59:34.644Z,21.20
2022-11-22T13:02:20.260Z,22.60
2022-11-22T13:05:09.173Z,24.52
2022-11-22T13:07:36.196Z,19.50
2022-11-22T13:10:12.068Z,19.45
2022-11-22T13:12:41.778Z,19.27
2022-11-22T13:15:13.964Z,18.27
2022-11-22T13:17:40.987Z,21.65
2022-11-22T13:20:22.126Z,19.25
2022-11-22T13:23:05.741Z,20.35
2022-11-22T13:25:47.904Z,20.65
2022-11-22T13:28:18.989Z,22.13
2022-11-22T13:31:07.875Z,21.75
2022-11-22T13:33:36.791Z,22.40
2022-11-22T13:36:32.262Z,20.88
2022-11-22T13:39:01.183Z,20.80
2022-11-22T13:41:36.539Z,26.10
2022-11-22T13:44:22.219Z,27.50
2022-11-22T13:46:56.836Z,23.85
2022-11-22T13:49:47.904Z,21.13
2022-11-22T13:52:16.221Z,22.40
2022-11-22T13:55:00.496Z,24.23
2022-11-22T13:57:41.817Z,23.85
2022-11-22T14:00:11.587Z,22.30
2022-11-22T14:02:49.080Z,22.30
2022-11-22T14:05:41.315Z,19.23
2022-11-22T14:08:29.717Z,22.35
2022-11-22T14:10:56.620Z,21.63
2022-11-22T14:13:52.455Z,21.95
2022-11-22T14:16:43.688Z,21.05
2022-11-22T14:19:31.471Z,22.60
2022-11-22T14:22:35.661Z,20.77
2022-11-22T14:25:21.416Z,20.42
2022-11-22T14:28:15.236Z,21.02
2022-11-22T14:30:50.457Z,20.77
2022-11-22T14:33:23.007Z,23.13
2022-11-22T14:36:11.410Z,25.38
2022-11-22T14:38:40.305Z,23.20
2022-11-22T14:41:26.001Z,23.30
2022-11-22T14:44:02.227Z,22.77
2022-11-22T14:46:54.541Z,26.77
2022-11-22T14:49:45.306Z,23.80
2022-11-22T14:52:25.524Z,22.08
2022-11-22T14:55:01.744Z,21.98
2022-11-22T14:57:32.609Z,26.77
2022-11-22T15:00:25.346Z,19.65
2022-11-22T15:03:25.659Z,21.65
2022-11-22T15:09:18.107Z,20.08
2022-11-22T15:09:52.668Z,21.83
2022-11-22T15:12:39.024Z,20.27
2022-11-22T15:59:41.351Z,17.25
2022-11-22T16:02:21.255Z,19.20
2022-11-22T16:06:03.488Z,19.20
2022-11-22T16:07:48.338Z,21.27
2022-11-22T16:10:33.161Z,17.92
2022-11-22T16:13:18.705Z,18.65
2022-11-22T16:16:03.854Z,18.75
2022-11-22T16:18:31.163Z,19.58
2022-11-22T16:21:20.966Z,19.30
2022-11-22T16:24:07.179Z,18.40
2022-11-22T16:26:34.416Z,18.70
2022-11-22T16:29:26.078Z,18.92
2022-11-22T16:32:03.223Z,21.20
2022-11-22T16:34:30.566Z,18.70
2022-11-22T16:36:57.861Z,19.90
2022-11-22T16:39:25.328Z,20.13
2022-11-22T16:41:52.374Z,19.40
2022-11-22T16:44:20.868Z,21.85
2022-11-22T16:46:47.869Z,22.40
2022-11-22T16:49:21.105Z,19.83
2022-11-22T16:51:50.100Z,20.38
2022-11-22T16:54:21.295Z,20.17
2022-11-22T16:56:48.160Z,19.38
2022-11-22T16:59:15.530Z,17.90
2022-11-22T17:01:43.604Z,19.88
2022-11-22T17:04:23.641Z,18.38
2022-11-22T17:06:51.400Z,17.73
2022-11-22T17:09:18.754Z,18.67
2022-11-22T17:11:46.215Z,19.02
2022-11-22T17:14:17.728Z,19.05
2022-11-22T17:16:45.947Z,19.45
2022-11-22T17:22:00.914Z,15.82
2022-11-22T17:24:29.192Z,20.45
2022-11-22T17:26:56.970Z,21.13
2022-11-22T17:32:14.602Z,18.63
2022-11-22T17:34:41.750Z,18.02
2022-11-22T17:37:12.782Z,18.65
2022-11-22T17:39:40.720Z,18.02
2022-11-22T17:42:07.852Z,19.88
2022-11-22T17:44:35.016Z,21.65
2022-11-22T17:47:02.103Z,19.75
2022-11-22T17:49:29.504Z,21.90
2022-11-22T17:51:56.604Z,19.20
2022-11-22T17:54:23.729Z,19.45
2022-11-22T17:56:50.629Z,19.95
2022-11-22T17:59:18.049Z,18.90
2022-11-22T18:01:44.983Z,16.70
2022-11-22T18:04:12.213Z,19.13
2022-11-22T18:06:39.060Z,18.95
2022-11-22T18:09:06.259Z,18.35
2022-11-22T18:11:33.213Z,20.30
2022-11-22T18:14:00.692Z,18.20
2022-11-22T18:16:28.946Z,18.67
2022-11-22T18:18:58.018Z,20.83
2022-11-22T18:21:29.517Z,19.20
2022-11-22T18:23:58.588Z,18.90
2022-11-22T18:26:41.963Z,19.05
2022-11-22T18:31:58.411Z,18.77
2022-11-22T18:34:25.899Z,17.13
2022-11-22T18:36:56.265Z,18.73
2022-11-22T18:39:24.861Z,18.65
2022-11-22T18:41:52.085Z,20.20
2022-11-22T18:44:19.367Z,19.02
2022-11-22T18:46:47.520Z,21.92
2022-11-22T18:49:15.206Z,20.40
2022-11-22T18:51:42.182Z,20.65
2022-11-22T18:54:10.453Z,19.95
2022-11-22T18:56:40.688Z,22.75
2022-11-22T18:59:14.585Z,23.02
2022-11-22T19:01:41.888Z,21.20
2022-11-22T19:04:13.989Z,19.90
2022-11-22T19:06:42.023Z,21.17
2022-11-22T19:09:09.911Z,22.77
2022-11-22T19:11:36.861Z,17.75
2022-11-22T19:14:04.565Z,21.58
2022-11-22T19:16:31.673Z,20.58
2022-11-22T19:18:59.635Z,20.92
2022-11-22T19:21:28.684Z,22.60
2022-11-22T19:23:57.030Z,22.05
2022-11-22T19:26:26.437Z,22.58
2022-11-22T19:28:55.931Z,20.30
2022-11-22T19:31:25.961Z,21.17
2022-11-22T19:33:53.539Z,21.60
2022-11-22T19:36:32.238Z,22.42
2022-11-22T19:39:02.760Z,20.45
2022-11-22T19:41:31.036Z,21.08
2022-11-22T19:43:58.251Z,21.08
2022-11-22T19:46:26.008Z,24.50
2022-11-22T19:48:55.131Z,19.75
2022-11-22T19:51:23.241Z,20.52
2022-11-22T19:53:59.546Z,20.58
2022-11-22T19:56:30.519Z,19.27
2022-11-22T19:58:59.185Z,21.10
2022-11-22T20:01:28.768Z,18.52
2022-11-22T20:04:01.939Z,18.50
2022-11-22T20:06:29.857Z,18.20
2022-11-22T20:09:19.050Z,19.27
2022-11-22T20:11:46.031Z,23.10
2022-11-22T20:14:13.433Z,21.05
2022-11-22T20:16:43.345Z,20.90
2022-11-22T20:19:12.323Z,20.88
2022-11-22T20:21:40.098Z,19.15
2022-11-22T20:24:08.020Z,17.95
2022-11-22T20:26:35.144Z,19.35
2022-11-22T20:29:05.900Z,19.08
2022-11-22T20:31:34.600Z,20.05
2022-11-22T20:34:02.907Z,20.67
2022-11-22T20:36:32.028Z,21.67
2022-11-22T20:39:01.777Z,22.08
2022-11-22T20:41:31.044Z,20.75
2022-11-22T20:43:58.198Z,18.63
2022-11-22T20:46:27.216Z,21.42
2022-11-22T20:48:55.524Z,20.00
2022-11-22T20:51:24.723Z,18.38
2022-11-22T20:53:52.428Z,20.05
2022-11-22T20:56:19.866Z,20.83
2022-11-22T20:58:47.906Z,19.58
2022-11-22T21:01:20.589Z,20.67
2022-11-22T21:03:48.463Z,18.58
2022-11-22T21:06:16.307Z,19.95
2022-11-22T21:08:47.369Z,22.63
2022-11-22T21:11:25.519Z,21.58
2022-11-22T21:13:53.503Z,20.88
2022-11-22T21:16:26.532Z,19.75
2022-11-22T21:18:55.896Z,19.58
2022-11-22T21:21:27.706Z,18.95
2022-11-22T21:23:59.620Z,21.45
2022-11-22T21:26:27.409Z,22.00
2022-11-22T21:28:55.315Z,20.40
2022-11-22T21:31:22.853Z,20.60
2022-11-22T21:33:50.727Z,19.95
2022-11-22T21:36:18.851Z,20.88
2022-11-22T21:38:46.103Z,20.58
2022-11-22T21:41:38.747Z,20.58
2022-11-22T21:44:03.882Z,21.60
2022-11-22T21:46:30.790Z,17.73
2022-11-22T21:48:58.015Z,19.23
2022-11-22T21:51:26.268Z,20.58
2022-11-22T21:54:01.122Z,19.65
2022-11-22T21:56:28.824Z,20.95
2022-11-22T21:58:56.100Z,20.45
2022-11-22T22:01:23.635Z,19.35
2022-11-22T22:03:51.186Z,20.63
2022-11-22T22:06:18.687Z,18.55
2022-11-22T22:08:45.848Z,21.05
2022-11-22T22:11:12.807Z,20.17
2022-11-22T22:13:39.996Z,21.00
2022-11-22T22:16:07.332Z,20.13
2022-11-22T22:18:36.999Z,19.35
2022-11-22T22:21:06.251Z,22.20
2022-11-22T22:23:34.353Z,19.92
2022-11-22T22:26:03.097Z,18.92
2022-11-22T22:28:31.883Z,20.48
2022-11-22T22:31:12.862Z,21.88
2022-11-22T22:33:41.764Z,20.17
2022-11-22T22:36:10.174Z,19.65
2022-11-22T22:38:38.545Z,19.08
2022-11-22T22:41:06.308Z,21.15
2022-11-22T22:43:36.041Z,19.42
2022-11-22T22:46:12.718Z,20.33
2022-11-22T22:48:41.060Z,21.05
2022-11-22T22:51:13.044Z,19.83
2022-11-22T22:53:40.925Z,20.70
2022-11-22T22:56:09.050Z,19.15
2022-11-22T22:58:36.867Z,18.60
2022-11-22T23:01:09.677Z,19.15
2022-11-22T23:06:10.252Z,17.83
2022-11-22T23:08:38.813Z,16.77
2022-11-22T23:11:07.882Z,19.42
2022-11-22T23:13:37.144Z,18.13
2022-11-22T23:16:05.906Z,18.60
2022-11-22T23:18:36.388Z,19.00
2022-11-22T23:21:05.411Z,18.15
2022-11-22T23:23:32.735Z,19.40
2022-11-22T23:26:08.236Z,18.63
2022-11-22T23:28:35.748Z,19.27
2022-11-22T23:31:11.431Z,18.60
2022-11-22T23:33:39.212Z,18.40
2022-11-22T23:36:08.527Z,18.45
2022-11-22T23:38:36.343Z,18.98
2022-11-22T23:41:04.147Z,18.92
2022-11-22T23:43:31.461Z,19.52
2022-11-22T23:45:58.888Z,18.15
2022-11-22T23:48:27.344Z,18.63
2022-11-22T23:50:54.319Z,20.00
2022-11-22T23:53:21.867Z,17.63
2022-11-22T23:55:48.848Z,17.10
2022-11-22T23:58:15.992Z,17.35
